createdAt,value
2022-10-12T00:00:49.867Z,13.00
2022-10-12T00:03:17.931Z,11.90
2022-10-12T00:05:45.744Z,13.80
2022-10-12T00:08:14.842Z,13.00
2022-10-12T00:10:43.547Z,13.00
2022-10-12T00:13:12.112Z,13.80
2022-10-12T00:15:43.478Z,13.27
2022-10-12T00:18:11.406Z,13.83
2022-10-12T00:20:39.808Z,14.03
2022-10-12T00:23:07.812Z,14.80
2022-10-12T00:25:40.696Z,15.97
2022-10-12T00:28:09.303Z,16.07
2022-10-12T00:30:42.138Z,15.63
2022-10-12T00:33:09.941Z,14.47
2022-10-12T00:35:37.748Z,15.57
2022-10-12T00:38:05.585Z,16.10
2022-10-12T00:40:33.417Z,17.50
2022-10-12T00:43:02.530Z,16.83
2022-10-12T00:45:30.977Z,16.83
2022-10-12T00:48:01.243Z,15.67
2022-10-12T00:50:32.286Z,17.97
2022-10-12T00:53:04.666Z,17.30
2022-10-12T00:55:38.319Z,16.83
2022-10-12T00:58:09.215Z,17.60
2022-10-12T01:00:39.192Z,16.33
2022-10-12T01:03:08.920Z,16.93
2022-10-12T01:05:37.305Z,16.70
2022-10-12T01:08:05.081Z,14.93
2022-10-12T01:10:33.168Z,17.17
2022-10-12T01:13:01.484Z,16.60
2022-10-12T01:15:35.382Z,14.77
2022-10-12T01:18:09.698Z,16.17
2022-10-12T01:20:53.337Z,16.30
2022-10-12T01:23:46.090Z,16.30
2022-10-12T01:26:54.576Z,16.97
2022-10-12T01:29:51.466Z,17.50
2022-10-12T01:32:23.424Z,18.17
2022-10-12T01:35:01.405Z,20.53
2022-10-12T01:37:39.010Z,19.70
2022-10-12T01:40:13.033Z,18.90
2022-10-12T01:42:43.662Z,17.17
2022-10-12T01:45:13.781Z,18.50
2022-10-12T01:47:48.304Z,19.73
2022-10-12T01:50:18.816Z,18.10
2022-10-12T01:52:57.925Z,19.20
2022-10-12T01:55:38.187Z,16.97
2022-10-12T01:58:26.453Z,16.93
2022-10-12T02:01:01.496Z,17.33
2022-10-12T02:03:37.736Z,18.37
2022-10-12T02:06:09.753Z,17.27
2022-10-12T02:08:43.031Z,20.80
2022-10-12T02:11:13.996Z,19.73
2022-10-12T02:13:45.744Z,19.67
2022-10-12T02:16:19.004Z,19.17
2022-10-12T02:18:54.474Z,19.03
2022-10-12T02:21:28.612Z,19.20
2022-10-12T02:23:59.502Z,21.53
2022-10-12T02:26:29.213Z,22.67
2022-10-12T02:28:59.676Z,22.53
2022-10-12T02:31:36.336Z,23.97
2022-10-12T02:34:11.735Z,25.20
2022-10-12T02:36:47.564Z,24.73
2022-10-12T02:39:21.315Z,24.23
2022-10-12T02:41:52.354Z,27.80
2022-10-12T02:44:23.681Z,26.93
2022-10-12T02:46:54.570Z,26.17
2022-10-12T02:49:25.979Z,26.27
2022-10-12T02:51:55.119Z,26.03
2022-10-12T02:54:22.992Z,26.30
2022-10-12T02:56:51.017Z,26.33
2022-10-12T02:59:20.032Z,27.17
2022-10-12T03:01:49.579Z,28.50
2022-10-12T03:04:17.488Z,27.00
2022-10-12T03:06:46.692Z,29.87
2022-10-12T03:09:18.401Z,29.70
2022-10-12T03:11:46.142Z,27.63
2022-10-12T03:14:16.867Z,29.30
2022-10-12T03:16:46.514Z,29.33
2022-10-12T03:19:14.613Z,28.93
2022-10-12T03:21:42.732Z,31.23
2022-10-12T03:24:12.093Z,31.50
2022-10-12T03:26:39.885Z,29.10
2022-10-12T03:29:08.484Z,28.13
2022-10-12T03:31:36.277Z,29.20
2022-10-12T03:34:05.473Z,28.53
2022-10-12T03:36:33.320Z,29.03
2022-10-12T03:39:01.291Z,29.20
2022-10-12T03:41:30.440Z,29.90
2022-10-12T03:43:58.560Z,31.77
2022-10-12T03:46:26.372Z,29.27
2022-10-12T03:48:56.971Z,28.60
2022-10-12T03:51:24.833Z,31.00
2022-10-12T03:53:52.654Z,30.80
2022-10-12T03:56:20.437Z,30.00
2022-10-12T03:58:52.149Z,31.50
2022-10-12T04:01:20.014Z,29.37
2022-10-12T04:03:48.064Z,29.83
2022-10-12T04:06:15.872Z,29.10
2022-10-12T04:08:48.345Z,30.40
2022-10-12T04:11:20.521Z,28.20
2022-10-12T04:13:49.891Z,28.83
2022-10-12T04:16:17.770Z,30.47
2022-10-12T04:18:45.617Z,28.80
2022-10-12T04:21:15.678Z,33.70
2022-10-12T04:23:43.815Z,31.03
2022-10-12T04:26:11.592Z,32.17
2022-10-12T04:28:41.011Z,32.20
2022-10-12T04:31:10.193Z,33.00
2022-10-12T04:33:37.909Z,30.07
2022-10-12T04:36:05.964Z,30.87
2022-10-12T04:38:33.805Z,30.23
2022-10-12T04:41:01.562Z,30.90
2022-10-12T04:43:29.424Z,32.40
2022-10-12T04:45:58.812Z,32.10
2022-10-12T04:48:28.982Z,33.33
2022-10-12T04:50:56.832Z,34.20
2022-10-12T04:53:24.697Z,33.77
2022-10-12T04:55:56.728Z,31.17
2022-10-12T04:58:24.575Z,33.97
2022-10-12T05:00:52.413Z,33.77
2022-10-12T05:03:20.224Z,32.17
2022-10-12T05:05:49.551Z,29.93
2022-10-12T05:08:17.606Z,29.20
2022-10-12T05:10:46.145Z,27.67
2022-10-12T05:13:14.107Z,28.23
2022-10-12T05:15:42.621Z,27.07
2022-10-12T05:18:10.636Z,26.90
2022-10-12T05:20:38.588Z,26.83
2022-10-12T05:23:07.969Z,25.20
2022-10-12T05:25:36.576Z,27.40
2022-10-12T05:28:04.553Z,27.13
2022-10-12T05:30:32.372Z,28.60
2022-10-12T05:33:03.075Z,28.27
2022-10-12T05:35:31.001Z,27.97
2022-10-12T05:37:58.756Z,32.47
2022-10-12T05:40:28.036Z,31.70
2022-10-12T05:42:55.788Z,30.77
2022-10-12T05:45:23.550Z,30.50
2022-10-12T05:47:51.477Z,30.23
2022-10-12T05:50:19.409Z,34.13
2022-10-12T05:52:47.193Z,31.63
2022-10-12T05:55:15.123Z,32.67
2022-10-12T05:57:47.334Z,32.67
2022-10-12T06:00:17.815Z,34.63
2022-10-12T06:02:45.540Z,35.47
2022-10-12T06:05:13.481Z,34.17
2022-10-12T06:07:41.365Z,35.37
2022-10-12T06:10:10.165Z,38.07
2022-10-12T06:12:38.190Z,37.17
2022-10-12T06:15:09.450Z,36.80
2022-10-12T06:17:37.242Z,35.90
2022-10-12T06:20:05.487Z,33.47
2022-10-12T06:22:33.255Z,30.20
2022-10-12T06:25:01.036Z,32.07
2022-10-12T06:27:28.840Z,33.43
2022-10-12T06:29:56.643Z,29.47
2022-10-12T06:32:25.812Z,30.87
2022-10-12T06:37:48.635Z,29.20
2022-10-12T06:40:13.248Z,28.47
2022-10-12T06:42:41.241Z,27.10
2022-10-12T06:45:09.997Z,27.77
2022-10-12T06:47:39.350Z,28.33
2022-10-12T06:50:09.105Z,28.63
2022-10-12T06:52:37.525Z,28.57
2022-10-12T06:55:07.102Z,31.93
2022-10-12T06:57:35.164Z,30.17
2022-10-12T07:00:06.092Z,27.20
2022-10-12T07:02:40.401Z,27.87
2022-10-12T07:05:13.096Z,27.67
2022-10-12T07:07:41.249Z,28.23
2022-10-12T07:10:10.160Z,29.07
2022-10-12T07:12:39.546Z,30.60
2022-10-12T07:15:08.801Z,29.10
2022-10-12T07:17:37.814Z,28.67
2022-10-12T07:20:07.579Z,28.37
2022-10-12T07:22:37.011Z,27.57
2022-10-12T07:25:05.649Z,28.53
2022-10-12T07:27:33.610Z,31.00
2022-10-12T07:30:01.492Z,26.23
2022-10-12T07:32:29.455Z,28.58
2022-10-12T07:34:57.541Z,26.30
2022-10-12T07:37:25.675Z,25.03
2022-10-12T07:39:57.434Z,24.77
2022-10-12T07:42:26.291Z,23.70
2022-10-12T07:44:54.331Z,21.10
2022-10-12T07:47:22.406Z,22.33
2022-10-12T07:49:50.779Z,21.57
2022-10-12T07:52:18.777Z,22.03
2022-10-12T07:54:46.491Z,21.23
2022-10-12T07:57:15.555Z,19.93
2022-10-12T07:59:43.381Z,19.73
2022-10-12T08:02:12.389Z,17.67
2022-10-12T08:04:40.289Z,18.47
2022-10-12T08:07:08.301Z,17.30
2022-10-12T08:09:36.281Z,17.97
2022-10-12T08:12:04.763Z,19.07
2022-10-12T08:14:34.203Z,20.30
2022-10-12T08:17:02.081Z,19.60
2022-10-12T08:19:35.080Z,18.60
2022-10-12T08:22:03.224Z,17.90
2022-10-12T08:24:30.980Z,18.17
2022-10-12T08:27:01.338Z,18.00
2022-10-12T08:29:29.540Z,17.67
2022-10-12T08:31:58.648Z,16.97
2022-10-12T08:34:26.397Z,18.13
2022-10-12T08:36:54.162Z,18.87
2022-10-12T08:39:22.139Z,17.53
2022-10-12T08:42:00.086Z,17.10
2022-10-12T08:44:48.997Z,18.33
2022-10-12T08:47:22.313Z,18.00
2022-10-12T08:49:51.683Z,18.77
2022-10-12T08:52:29.435Z,18.37
2022-10-12T08:55:03.296Z,18.53
2022-10-12T08:57:31.094Z,20.70
2022-10-12T08:59:59.635Z,22.93
2022-10-12T09:02:51.627Z,24.87
2022-10-12T09:05:28.565Z,24.43
2022-10-12T09:08:01.165Z,24.73
2022-10-12T09:10:44.205Z,24.57
2022-10-12T09:13:23.375Z,25.00
2022-10-12T09:15:53.938Z,26.60
2022-10-12T09:18:31.005Z,25.90
2022-10-12T09:20:59.931Z,25.53
2022-10-12T09:23:31.449Z,26.87
2022-10-12T09:26:08.161Z,27.07
2022-10-12T09:28:40.450Z,26.80
2022-10-12T09:31:19.860Z,26.87
2022-10-12T09:33:52.857Z,25.37
2022-10-12T09:36:23.275Z,26.20
2022-10-12T09:38:52.216Z,25.43
2022-10-12T09:41:23.761Z,25.10
2022-10-12T09:43:55.575Z,24.53
2022-10-12T09:46:31.512Z,24.30
2022-10-12T09:49:01.529Z,23.77
2022-10-12T09:51:31.103Z,23.87
2022-10-12T09:54:03.331Z,24.07
2022-10-12T09:56:39.726Z,24.40
2022-10-12T09:59:18.674Z,24.50
2022-10-12T10:01:59.100Z,21.73
2022-10-12T10:04:30.660Z,22.40
2022-10-12T10:07:14.896Z,23.37
2022-10-12T10:09:42.856Z,22.23
2022-10-12T10:12:22.363Z,22.30
2022-10-12T10:14:51.692Z,21.70
2022-10-12T10:17:26.223Z,20.60
2022-10-12T10:19:57.848Z,20.10
2022-10-12T10:22:26.483Z,21.07
2022-10-12T10:25:00.169Z,20.83
2022-10-12T10:27:32.181Z,20.50
2022-10-12T10:30:29.219Z,20.73
2022-10-12T10:33:18.807Z,19.67
2022-10-12T10:35:58.100Z,21.10
2022-10-12T10:38:26.425Z,20.07
2022-10-12T10:40:58.000Z,20.37
2022-10-12T10:43:29.493Z,19.93
2022-10-12T10:45:59.608Z,19.57
2022-10-12T10:48:30.762Z,19.57
2022-10-12T10:51:02.300Z,20.70
2022-10-12T10:53:43.631Z,20.13
2022-10-12T10:56:15.388Z,18.60
2022-10-12T10:58:47.036Z,19.63
2022-10-12T11:01:22.859Z,16.47
2022-10-12T11:03:57.520Z,16.57
2022-10-12T11:06:37.004Z,14.00
2022-10-12T11:09:12.231Z,14.13
2022-10-12T11:11:41.678Z,13.63
2022-10-12T11:14:16.319Z,14.07
2022-10-12T11:16:47.803Z,13.47
2022-10-12T11:19:25.092Z,12.73
2022-10-12T11:21:57.587Z,14.93
2022-10-12T11:24:30.399Z,15.67
2022-10-12T11:27:03.529Z,15.00
2022-10-12T11:29:31.612Z,15.23
2022-10-12T11:32:04.322Z,14.47
2022-10-12T11:34:38.629Z,14.13
2022-10-12T11:37:19.743Z,13.80
2022-10-12T11:39:51.206Z,12.93
2022-10-12T11:42:29.204Z,13.90
2022-10-12T11:45:00.322Z,14.33
2022-10-12T11:47:35.597Z,13.83
2022-10-12T11:50:07.627Z,15.83
2022-10-12T11:52:42.068Z,15.93
2022-10-12T11:55:28.071Z,14.20
2022-10-12T11:57:59.786Z,15.20
2022-10-12T12:00:37.106Z,15.07
2022-10-12T12:03:18.662Z,14.70
2022-10-12T12:05:46.581Z,15.03
2022-10-12T12:08:24.195Z,14.77
2022-10-12T12:10:54.470Z,15.43
2022-10-12T12:13:27.174Z,15.63
2022-10-12T12:16:34.040Z,16.10
2022-10-12T12:19:15.544Z,15.47
2022-10-12T12:22:12.959Z,14.63
2022-10-12T12:24:52.852Z,15.13
2022-10-12T12:27:23.709Z,13.73
2022-10-12T12:29:53.385Z,13.43
2022-10-12T12:32:21.921Z,13.00
2022-10-12T12:35:00.031Z,13.73
2022-10-12T12:37:35.181Z,13.47
2022-10-12T12:40:05.102Z,13.10
2022-10-12T12:42:34.251Z,12.70
2022-10-12T12:45:42.836Z,12.90
2022-10-12T12:48:11.730Z,12.50
2022-10-12T12:50:41.729Z,13.23
2022-10-12T12:53:18.105Z,13.33
2022-10-12T12:56:03.593Z,13.40
2022-10-12T12:59:02.463Z,12.80
2022-10-12T13:01:50.064Z,13.60
2022-10-12T13:04:35.647Z,13.57
2022-10-12T13:07:37.230Z,12.87
2022-10-12T13:10:20.022Z,17.00
2022-10-12T13:13:10.363Z,12.57
2022-10-12T13:15:54.350Z,13.60
2022-10-12T13:18:56.923Z,12.57
2022-10-12T13:21:27.230Z,12.07
2022-10-12T13:24:04.332Z,13.23
2022-10-12T13:26:33.492Z,13.17
2022-10-12T13:29:07.297Z,12.50
2022-10-12T13:31:39.219Z,12.60
2022-10-12T13:34:13.890Z,13.20
2022-10-12T13:36:54.028Z,13.53
2022-10-12T13:39:23.234Z,12.73
2022-10-12T13:41:54.163Z,12.23
2022-10-12T13:44:26.685Z,12.13
2022-10-12T13:46:57.784Z,13.20
2022-10-12T13:49:28.204Z,12.37
2022-10-12T13:51:57.501Z,11.90
2022-10-12T13:54:27.295Z,12.77
2022-10-12T13:57:00.228Z,15.77
2022-10-12T13:59:33.590Z,12.73
2022-10-12T14:02:02.972Z,12.10
2022-10-12T14:04:32.139Z,12.40
2022-10-12T14:07:02.962Z,12.83
2022-10-12T14:09:40.420Z,12.63
2022-10-12T14:12:09.670Z,12.03
2022-10-12T14:14:40.943Z,11.70
2022-10-12T14:17:08.924Z,11.23
2022-10-12T14:19:45.036Z,13.07
2022-10-12T14:22:13.947Z,11.73
2022-10-12T14:24:41.865Z,13.57
2022-10-12T14:27:09.938Z,12.00
2022-10-12T14:29:45.415Z,11.47
2022-10-12T14:32:39.345Z,13.40
2022-10-12T14:35:23.939Z,11.67
2022-10-12T14:37:53.704Z,11.00
2022-10-12T14:40:38.596Z,11.27
2022-10-12T14:43:09.474Z,10.57
2022-10-12T14:45:42.177Z,11.33
2022-10-12T14:48:15.139Z,11.50
2022-10-12T14:50:44.791Z,10.50
2022-10-12T14:53:14.993Z,11.40
2022-10-12T14:55:43.622Z,10.87
2022-10-12T14:58:15.851Z,11.37
2022-10-12T15:00:45.510Z,11.70
2022-10-12T15:03:13.631Z,11.33
2022-10-12T15:05:41.446Z,12.00
2022-10-12T15:08:12.610Z,11.63
2022-10-12T15:10:40.523Z,11.53
2022-10-12T15:13:08.323Z,11.20
2022-10-12T15:15:40.679Z,11.57
2022-10-12T15:18:09.987Z,12.13
2022-10-12T15:20:38.380Z,12.17
2022-10-12T15:23:07.035Z,13.10
2022-10-12T15:25:42.912Z,11.97
2022-10-12T15:28:10.963Z,13.07
2022-10-12T15:30:52.198Z,13.80
2022-10-12T15:33:28.120Z,14.80
2022-10-12T15:35:56.165Z,13.60
2022-10-12T15:38:24.141Z,13.90
2022-10-12T15:40:52.838Z,13.70
2022-10-12T15:43:20.938Z,13.47
2022-10-12T15:45:49.608Z,14.17
2022-10-12T15:48:17.756Z,13.67
2022-10-12T15:50:49.065Z,13.60
2022-10-12T15:53:18.310Z,14.10
2022-10-12T15:55:46.099Z,13.83
2022-10-12T15:58:14.175Z,14.00
2022-10-12T16:00:42.637Z,14.60
2022-10-12T16:03:24.601Z,14.10
2022-10-12T16:05:55.491Z,14.03
2022-10-12T16:08:23.461Z,14.67
2022-10-12T16:10:51.425Z,15.30
2022-10-12T16:13:19.334Z,16.10
2022-10-12T16:15:47.132Z,15.07
2022-10-12T16:18:15.500Z,15.33
2022-10-12T16:20:46.647Z,15.53
2022-10-12T16:23:23.764Z,17.17
2022-10-12T16:25:51.767Z,17.57
2022-10-12T16:28:22.194Z,16.10
2022-10-12T16:30:50.305Z,17.23
2022-10-12T16:33:19.356Z,16.80
2022-10-12T16:35:47.723Z,16.90
2022-10-12T16:38:15.961Z,17.07
2022-10-12T16:40:45.182Z,17.03
2022-10-12T16:43:13.132Z,18.03
2022-10-12T16:45:40.982Z,17.40
2022-10-12T16:48:08.904Z,17.20
2022-10-12T16:50:40.638Z,18.50
2022-10-12T16:53:09.188Z,17.53
2022-10-12T16:55:39.028Z,17.23
2022-10-12T16:58:08.247Z,18.30
2022-10-12T17:00:36.754Z,17.00
2022-10-12T17:03:04.620Z,17.23
2022-10-12T17:05:32.424Z,16.83
2022-10-12T17:08:00.237Z,16.00
2022-10-12T17:10:28.666Z,17.20
2022-10-12T17:12:56.658Z,16.10
2022-10-12T17:15:25.848Z,16.40
2022-10-12T17:17:54.059Z,15.80
2022-10-12T17:20:21.891Z,15.40
2022-10-12T17:22:49.674Z,15.50
2022-10-12T17:25:17.601Z,15.73
2022-10-12T17:27:45.380Z,15.87
2022-10-12T17:30:13.744Z,16.00
2022-10-12T17:32:42.938Z,16.77
2022-10-12T17:35:11.213Z,15.13
2022-10-12T17:37:39.122Z,15.17
2022-10-12T17:40:11.400Z,15.53
2022-10-12T17:42:39.480Z,15.77
2022-10-12T17:45:08.459Z,15.20
2022-10-12T17:47:36.382Z,15.50
2022-10-12T17:50:06.475Z,14.83
2022-10-12T17:52:39.475Z,14.67
2022-10-12T17:55:19.228Z,16.43
2022-10-12T17:57:55.962Z,14.40
2022-10-12T18:00:23.762Z,15.87
2022-10-12T18:02:51.660Z,14.90
2022-10-12T18:05:21.039Z,14.33
2022-10-12T18:07:48.848Z,15.33
2022-10-12T18:10:16.848Z,14.70
2022-10-12T18:12:45.060Z,15.03
2022-10-12T18:15:12.901Z,15.40
2022-10-12T18:17:40.757Z,15.90
2022-10-12T18:20:09.681Z,16.97
2022-10-12T18:22:38.941Z,20.53
2022-10-12T18:25:07.913Z,15.73
2022-10-12T18:27:35.735Z,16.77
2022-10-12T18:30:03.901Z,18.83
2022-10-12T18:32:31.692Z,16.67
2022-10-12T18:34:59.526Z,15.00
2022-10-12T18:37:27.490Z,13.77
2022-10-12T18:39:56.619Z,14.70
2022-10-12T18:42:24.479Z,14.53
2022-10-12T18:44:52.316Z,13.93
2022-10-12T18:47:24.540Z,13.97
2022-10-12T18:49:55.566Z,14.30
2022-10-12T18:52:23.600Z,14.47
2022-10-12T18:54:51.946Z,14.07
2022-10-12T18:57:21.320Z,12.43
2022-10-12T18:59:53.794Z,12.07
2022-10-12T19:02:21.962Z,16.00
2022-10-12T19:04:50.035Z,13.00
2022-10-12T19:07:18.006Z,18.13
2022-10-12T19:09:48.976Z,13.20
2022-10-12T19:12:21.590Z,12.50
2022-10-12T19:14:49.911Z,13.87
2022-10-12T19:17:17.925Z,13.07
2022-10-12T19:19:48.695Z,13.87
2022-10-12T19:22:17.029Z,12.37
2022-10-12T19:24:45.083Z,12.90
2022-10-12T19:27:12.882Z,12.40
2022-10-12T19:29:45.665Z,13.27
2022-10-12T19:32:14.082Z,13.00
2022-10-12T19:34:42.120Z,13.97
2022-10-12T19:37:09.989Z,14.97
2022-10-12T19:39:37.859Z,17.87
2022-10-12T19:42:06.042Z,19.40
2022-10-12T19:44:33.956Z,23.93
2022-10-12T19:47:03.511Z,18.70
2022-10-12T19:49:36.881Z,14.40
2022-10-12T19:52:06.584Z,13.57
2022-10-12T19:54:36.328Z,13.63
2022-10-12T19:57:04.269Z,13.47
2022-10-12T19:59:32.231Z,14.03
2022-10-12T20:02:00.098Z,13.17
2022-10-12T20:04:32.021Z,13.80
2022-10-12T20:07:00.114Z,13.00
2022-10-12T20:09:28.182Z,14.03
2022-10-12T20:11:56.141Z,12.80
2022-10-12T20:14:25.616Z,11.97
2022-10-12T20:16:55.584Z,12.83
2022-10-12T20:19:23.386Z,12.13
2022-10-12T20:21:52.667Z,12.53
2022-10-12T20:24:20.662Z,12.57
2022-10-12T20:26:48.442Z,12.80
2022-10-12T20:29:16.385Z,12.93
2022-10-12T20:31:44.266Z,13.30
2022-10-12T20:34:14.040Z,13.23
2022-10-12T20:36:41.874Z,13.00
2022-10-12T20:39:11.230Z,13.60
2022-10-12T20:41:40.573Z,11.57
2022-10-12T20:44:10.330Z,10.97
2022-10-12T20:46:38.723Z,12.30
2022-10-12T20:49:06.712Z,12.30
2022-10-12T20:51:36.860Z,13.47
2022-10-12T20:54:06.571Z,12.17
2022-10-12T20:56:35.897Z,13.80
2022-10-12T20:59:03.717Z,17.20
2022-10-12T21:01:31.803Z,14.37
2022-10-12T21:03:59.626Z,12.50
2022-10-12T21:06:29.645Z,12.00
2022-10-12T21:08:58.414Z,11.97
2022-10-12T21:11:26.384Z,11.57
2022-10-12T21:13:56.109Z,11.93
2022-10-12T21:16:24.624Z,11.97
2022-10-12T21:18:55.424Z,13.37
2022-10-12T21:21:23.978Z,12.60
2022-10-12T21:23:54.507Z,13.67
2022-10-12T21:26:24.435Z,14.37
2022-10-12T21:28:52.495Z,12.70
2022-10-12T21:31:22.793Z,12.03
2022-10-12T21:33:51.548Z,12.33
2022-10-12T21:36:21.569Z,11.53
2022-10-12T21:38:50.188Z,13.17
2022-10-12T21:41:19.387Z,12.60
2022-10-12T21:43:48.370Z,12.27
2022-10-12T21:46:23.209Z,11.90
2022-10-12T21:48:51.636Z,12.57
2022-10-12T21:51:21.169Z,13.87
2022-10-12T21:53:49.323Z,13.43
2022-10-12T21:56:19.674Z,12.97
2022-10-12T21:58:47.966Z,13.00
2022-10-12T22:01:17.392Z,13.70
2022-10-12T22:03:48.146Z,12.93
2022-10-12T22:06:17.901Z,12.37
2022-10-12T22:08:46.180Z,11.00
2022-10-12T22:11:16.360Z,11.33
2022-10-12T22:13:44.167Z,10.90
2022-10-12T22:16:14.490Z,10.97
2022-10-12T22:18:42.833Z,10.90
2022-10-12T22:21:15.103Z,12.87
2022-10-12T22:23:43.941Z,12.63
2022-10-12T22:26:14.895Z,11.20
2022-10-12T22:28:54.369Z,9.60
2022-10-12T22:31:24.448Z,10.07
2022-10-12T22:33:52.352Z,9.23
2022-10-12T22:36:21.534Z,9.43
2022-10-12T22:38:49.316Z,9.10
2022-10-12T22:41:18.827Z,10.20
2022-10-12T22:43:50.413Z,10.17
2022-10-12T22:46:19.020Z,9.97
2022-10-12T22:48:47.083Z,11.47
2022-10-12T22:51:18.576Z,11.43
2022-10-12T22:53:47.863Z,9.20
2022-10-12T22:56:17.407Z,9.73
2022-10-12T22:58:46.656Z,8.57
2022-10-12T23:01:16.364Z,8.63
2022-10-12T23:03:45.879Z,8.60
2022-10-12T23:06:16.246Z,8.80
2022-10-12T23:08:44.323Z,8.53
2022-10-12T23:11:16.175Z,8.80
2022-10-12T23:13:44.764Z,8.70
2022-10-12T23:16:16.679Z,8.37
2022-10-12T23:18:44.685Z,8.67
2022-10-12T23:21:14.799Z,8.90
2022-10-12T23:23:44.236Z,8.40
2022-10-12T23:26:15.355Z,8.23
2022-10-12T23:28:43.276Z,8.80
2022-10-12T23:31:19.023Z,8.53
2022-10-12T23:33:47.339Z,8.87
2022-10-12T23:36:17.236Z,9.13
2022-10-12T23:38:46.022Z,8.90
2022-10-12T23:41:15.387Z,8.50
2022-10-12T23:43:43.468Z,8.80
2022-10-12T23:46:13.426Z,9.00
2022-10-12T23:48:42.215Z,9.00
2022-10-12T23:51:10.812Z,9.07
2022-10-12T23:53:39.278Z,8.80
2022-10-12T23:56:07.708Z,8.57
2022-10-12T23:58:36.995Z,9.13
